Deerfield, New Hampshire
Current Conditions -  °F | °C
As of 11:51 AM on Saturday 22 Nov 2014 (Local Time) from KCON Reporting Station
Clear Clear  
Wind Chill: 24°   Ceiling: Unl
Heat Index: 32°   Visibility: 10mi
Dew Point: 10°   Wind: 10mph
Humidity: 40%   Direction: 210°SSW
Pressure: 30.2"   Gusts: NA
Location:  43.15°N, 71.22°W
Report Text: KCON 221651Z AUTO 21009KT 10SM CLR 00/M12 A3020 RMK AO2 SLP233 T00001122
Loading
Personal Weather Stations






























Interactive Weather Map New forecast layout! Learn more

10-Day Weather Forecast

Advertisements
Track Severe Weather on mobile